Time;durP1;ratioP1;P1;durP2;ratioP2;P2;SDS_P1;SDS_P2;PMS_P1;PMS_P2;Temp;Humidity;BMP_temperature;BMP_pressure;BME280_temperature;BME280_humidity;BME280_pressure;Samples;Min_cycle;Max_cycle;Signal;HPM_P1;HPM_P2
2023/03/27 00:02:40;;;;;;;17.90;9.50;;;;;;;6.94;91.97;97459.08;273268;1267;22460;-84
2023/03/27 00:08:43;;;;;;;11.00;6.90;;;;;;;6.96;92.78;97463.27;273185;1269;22403;-83
2023/03/27 00:14:45;;;;;;;18.00;7.30;;;;;;;7.00;92.89;97465.45;273498;1257;23310;-85
2023/03/27 00:20:47;;;;;;;12.40;7.70;;;;;;;7.01;92.89;97461.88;272976;1259;22601;-85
2023/03/27 00:26:48;;;;;;;11.40;7.10;;;;;;;7.00;92.91;97457.67;273394;1268;23146;-85
2023/03/27 00:32:51;;;;;;;11.40;7.10;;;;;;;6.97;92.98;97458.61;273478;1267;23011;-85
2023/03/27 00:38:52;;;;;;;14.70;7.70;;;;;;;6.95;93.03;97456.76;271231;1270;23240;-84
2023/03/27 00:45:18;;;;;;;14.60;9.00;;;;;;;6.91;93.26;97449.67;273652;1269;22397;-85
2023/03/27 00:51:26;;;;;;;13.50;7.00;;;;;;;6.89;93.90;97445.86;272443;1269;22535;-84
2023/03/27 00:57:28;;;;;;;12.80;6.60;;;;;;;6.87;94.17;97439.63;270703;1269;22201;-84
2023/03/27 01:03:50;;;;;;;11.70;6.70;;;;;;;6.86;94.28;97432.48;272286;1269;22502;-85
2023/03/27 01:09:52;;;;;;;12.00;7.10;;;;;;;6.82;94.59;97423.08;273429;1270;22339;-84
2023/03/27 01:16:32;;;;;;;14.60;7.90;;;;;;;6.79;94.84;97423.54;273432;1270;22318;-84
2023/03/27 01:22:55;;;;;;;15.70;8.10;;;;;;;6.77;95.08;97412.98;271834;1270;22955;-83
2023/03/27 01:29:21;;;;;;;13.50;9.60;;;;;;;6.73;95.32;97398.29;269731;1261;22589;-84
2023/03/27 01:35:31;;;;;;;14.80;10.80;;;;;;;6.67;95.76;97387.40;270933;1270;22460;-84
2023/03/27 01:41:45;;;;;;;22.50;12.00;;;;;;;6.63;96.05;97374.81;270127;1258;22634;-84
2023/03/27 01:48:07;;;;;;;20.80;12.20;;;;;;;6.60;96.47;97366.43;270389;1271;22561;-84
2023/03/27 01:54:26;;;;;;;18.20;12.70;;;;;;;6.55;96.24;97361.68;271320;1269;22323;-84
2023/03/27 02:00:29;;;;;;;21.10;13.50;;;;;;;6.48;96.42;97361.36;271209;1257;22697;-85
2023/03/27 02:06:50;;;;;;;22.90;14.70;;;;;;;6.45;96.86;97355.15;270140;1270;22522;-84
2023/03/27 02:13:00;;;;;;;21.30;14.20;;;;;;;6.43;97.12;97344.20;272054;1270;22440;-84
2023/03/27 02:19:23;;;;;;;22.50;14.80;;;;;;;6.39;97.35;97335.95;273556;1257;22267;-85
2023/03/27 02:25:27;;;;;;;24.40;15.30;;;;;;;6.37;97.73;97333.63;270366;1269;25622;-84
2023/03/27 02:31:56;;;;;;;24.90;15.40;;;;;;;6.38;98.15;97333.02;273176;1269;22578;-83
2023/03/27 02:38:38;;;;;;;20.30;14.30;;;;;;;6.39;98.14;97332.61;273691;1270;22223;-84
2023/03/27 02:44:50;;;;;;;23.70;15.10;;;;;;;6.38;98.34;97337.90;273463;1269;22405;-84
2023/03/27 02:51:18;;;;;;;24.60;14.40;;;;;;;6.40;98.58;97339.08;273129;1269;22607;-84
2023/03/27 02:57:30;;;;;;;20.10;14.50;;;;;;;6.39;98.88;97337.83;270299;1267;22598;-85
2023/03/27 03:04:40;;;;;;;20.80;14.20;;;;;;;6.39;99.22;97344.19;271224;1269;22948;-84
2023/03/27 03:11:14;;;;;;;25.50;15.00;;;;;;;6.37;99.27;97352.80;273366;1261;22360;-85
2023/03/27 03:17:16;;;;;;;21.80;15.00;;;;;;;6.41;99.67;97360.66;273513;1256;22453;-84
2023/03/27 03:23:38;;;;;;;24.70;15.70;;;;;;;6.44;99.71;97365.33;271131;1269;22545;-84
2023/03/27 03:29:43;;;;;;;26.20;17.80;;;;;;;6.48;100.00;97366.11;270315;1270;23404;-84
2023/03/27 03:35:50;;;;;;;28.00;17.90;;;;;;;6.51;99.99;97362.70;270939;1268;22567;-83
2023/03/27 03:42:24;;;;;;;31.40;19.50;;;;;;;6.49;100.00;97362.07;273125;1258;23875;-84
2023/03/27 03:48:27;;;;;;;34.80;22.20;;;;;;;6.47;100.00;97357.56;271747;1259;22544;-84
2023/03/27 03:54:31;;;;;;;31.70;19.70;;;;;;;6.44;100.00;97360.36;270697;1268;23093;-86
2023/03/27 04:00:37;;;;;;;28.80;17.30;;;;;;;6.44;100.00;97358.73;270599;1268;22626;-83
2023/03/27 04:06:42;;;;;;;26.30;16.30;;;;;;;6.47;100.00;97353.30;272719;1268;22379;-84
2023/03/27 04:12:48;;;;;;;24.50;16.10;;;;;;;6.48;100.00;97347.45;273534;1258;22530;-84
2023/03/27 04:19:01;;;;;;;22.40;14.40;;;;;;;6.44;100.00;97347.85;273588;1268;23235;-84
2023/03/27 04:25:06;;;;;;;20.70;13.70;;;;;;;6.41;100.00;97347.46;273542;1269;22302;-84
2023/03/27 04:31:09;;;;;;;19.20;12.60;;;;;;;6.39;100.00;97347.06;273564;1268;22498;-84
2023/03/27 04:37:46;;;;;;;22.90;15.10;;;;;;;6.37;100.00;97350.55;273536;1268;22628;-84
2023/03/27 04:44:00;;;;;;;22.10;14.10;;;;;;;6.36;100.00;97344.02;273417;1268;22430;-84
2023/03/27 04:50:08;;;;;;;17.20;12.00;;;;;;;6.39;100.00;97345.20;273507;1268;22404;-84
2023/03/27 04:56:13;;;;;;;19.80;12.10;;;;;;;6.45;100.00;97343.89;273433;1268;23412;-84
2023/03/27 05:02:16;;;;;;;19.20;12.50;;;;;;;6.44;100.00;97347.38;273584;1254;23259;-84
2023/03/27 05:08:24;;;;;;;17.40;12.30;;;;;;;6.42;100.00;97343.42;273548;1258;22254;-84
2023/03/27 05:14:26;;;;;;;18.50;12.60;;;;;;;6.44;100.00;97342.49;273657;1268;22491;-84
2023/03/27 05:20:28;;;;;;;22.50;13.30;;;;;;;6.46;100.00;97341.25;273539;1268;23398;-84
2023/03/27 05:26:31;;;;;;;23.90;14.20;;;;;;;6.46;100.00;97339.85;273653;1258;22580;-84
2023/03/27 05:32:57;;;;;;;21.20;13.00;;;;;;;6.51;100.00;97351.04;270840;1268;22524;-84
2023/03/27 05:39:03;;;;;;;18.70;12.90;;;;;;;6.56;100.00;97351.91;270274;1268;22535;-84
2023/03/27 05:45:09;;;;;;;19.30;14.40;;;;;;;6.61;100.00;97352.60;271521;1262;22522;-84
2023/03/27 05:51:14;;;;;;;22.40;14.70;;;;;;;6.62;100.00;97359.58;271340;1269;22996;-85
2023/03/27 05:57:18;;;;;;;20.00;14.30;;;;;;;6.60;100.00;97364.25;271837;1267;23610;-84
2023/03/27 06:03:20;;;;;;;25.50;15.20;;;;;;;6.63;100.00;97376.14;273467;1268;22193;-85
2023/03/27 06:09:40;;;;;;;24.40;15.50;;;;;;;6.65;100.00;97386.86;273773;1268;22413;-84
2023/03/27 06:16:08;;;;;;;20.10;15.00;;;;;;;6.70;100.00;97391.21;273641;1266;22192;-84
2023/03/27 06:22:32;;;;;;;19.90;15.00;;;;;;;6.70;100.00;97394.71;273154;1268;23832;-83
2023/03/27 06:28:38;;;;;;;21.10;13.20;;;;;;;6.64;100.00;97399.20;273548;1268;23181;-84
2023/03/27 06:34:40;;;;;;;17.50;11.70;;;;;;;6.61;100.00;97403.41;273100;1257;22528;-82
2023/03/27 06:41:17;;;;;;;17.50;12.40;;;;;;;6.58;100.00;97405.25;270834;1267;23072;-83
2023/03/27 06:47:34;;;;;;;18.60;13.10;;;;;;;6.55;100.00;97408.36;273558;1268;22190;-83
2023/03/27 06:53:55;;;;;;;22.70;13.50;;;;;;;6.51;100.00;97412.31;273597;1268;22451;-82
2023/03/27 06:59:57;;;;;;;19.50;13.60;;;;;;;6.51;100.00;97421.09;271275;1268;23482;-82
2023/03/27 07:06:06;;;;;;;17.70;13.70;;;;;;;6.51;100.00;97427.39;273075;1267;22408;-82
2023/03/27 07:12:33;;;;;;;23.50;14.90;;;;;;;6.53;100.00;97433.77;273294;1268;208080;-82
2023/03/27 07:18:35;;;;;;;22.90;13.90;;;;;;;6.53;100.00;97438.02;273579;1267;22413;-82
2023/03/27 07:24:46;;;;;;;21.60;13.90;;;;;;;6.54;100.00;97434.38;273288;1258;22203;-82
2023/03/27 07:30:49;;;;;;;60.90;36.30;;;;;;;6.62;100.00;97431.06;273660;1255;22385;-84
2023/03/27 07:36:58;;;;;;;20.90;13.40;;;;;;;6.71;100.00;97432.86;272691;1268;22573;-82
2023/03/27 07:43:00;;;;;;;36.50;22.80;;;;;;;6.71;100.00;97438.46;272330;1257;22639;-83
2023/03/27 07:49:02;;;;;;;22.00;13.40;;;;;;;6.79;100.00;97444.29;273087;1268;22417;-83
2023/03/27 07:55:04;;;;;;;24.20;15.10;;;;;;;6.78;100.00;97444.98;273398;1268;23201;-82
2023/03/27 08:01:10;;;;;;;;;;;;;;;6.81;100.00;97441.89;271498;1258;22503;-83
2023/03/27 08:07:12;;;;;;;16.70;12.50;;;;;;;6.86;100.00;97446.63;270858;1268;25405;-83
2023/03/27 08:13:36;;;;;;;17.70;11.50;;;;;;;6.91;100.00;97451.45;272015;1268;23165;-83
2023/03/27 08:19:39;;;;;;;21.00;12.80;;;;;;;6.90;100.00;97452.00;273491;1268;23381;-83
2023/03/27 08:25:41;;;;;;;20.60;12.00;;;;;;;6.89;100.00;97459.53;273518;1268;22308;-83
2023/03/27 08:31:43;;;;;;;36.20;16.40;;;;;;;6.87;100.00;97461.95;273454;1268;22478;-83
2023/03/27 08:37:45;;;;;;;27.50;22.00;;;;;;;6.84;100.00;97470.48;273520;1268;23752;-83
2023/03/27 08:44:00;;;;;;;20.90;16.10;;;;;;;6.83;100.00;97472.35;270762;1268;22416;-84
2023/03/27 08:50:48;;;;;;;30.50;18.20;;;;;;;6.83;100.00;97472.20;270437;1269;23419;-82
2023/03/27 08:56:53;;;;;;;43.20;27.40;;;;;;;6.81;100.00;97475.67;270196;1268;22625;-83
2023/03/27 09:03:00;;;;;;;40.60;27.90;;;;;;;6.80;100.00;97482.91;271743;1253;22569;-83
2023/03/27 09:09:16;;;;;;;37.90;25.00;;;;;;;6.77;100.00;97485.70;272943;1258;23769;-83
2023/03/27 09:15:25;;;;;;;34.30;21.80;;;;;;;6.83;100.00;97484.86;273687;1258;22888;-82
2023/03/27 09:21:38;;;;;;;20.90;14.70;;;;;;;6.80;100.00;97487.73;273565;1268;22555;-84
2023/03/27 09:27:43;;;;;;;19.90;11.00;;;;;;;6.78;100.00;97493.64;273645;1258;23928;-84
2023/03/27 09:34:07;;;;;;;19.50;9.60;;;;;;;6.65;100.00;97503.86;272803;1268;22425;-82
2023/03/27 09:40:29;;;;;;;12.70;7.60;;;;;;;6.48;100.00;97512.51;272915;1268;22403;-84
2023/03/27 09:46:58;;;;;;;12.90;6.60;;;;;;;6.33;100.00;97521.92;272429;1258;22380;-83
2023/03/27 09:53:13;;;;;;;9.90;5.80;;;;;;;6.18;100.00;97531.95;273586;1268;22410;-82
2023/03/27 09:59:57;;;;;;;17.00;8.10;;;;;;;6.02;100.00;97535.98;272822;1267;22494;-83
2023/03/27 10:06:43;;;;;;;14.70;7.80;;;;;;;5.92;100.00;97538.79;272817;1258;22456;-84
2023/03/27 10:12:59;;;;;;;22.30;8.20;;;;;;;5.82;100.00;97550.42;273625;1268;23102;-84
2023/03/27 10:19:21;;;;;;;10.30;7.40;;;;;;;5.76;100.00;97558.13;270466;1262;23941;-82
2023/03/27 10:25:41;;;;;;;11.50;8.10;;;;;;;5.78;100.00;97570.80;271896;1268;22187;-84
2023/03/27 10:32:02;;;;;;;19.60;10.10;;;;;;;5.79;100.00;97584.16;272566;1258;23014;-83
2023/03/27 10:38:21;;;;;;;17.70;11.60;;;;;;;5.78;100.00;97588.78;270120;1268;23501;-84
2023/03/27 10:44:53;;;;;;;28.90;15.60;;;;;;;5.70;100.00;97589.51;270411;1268;23290;-84
2023/03/27 10:51:03;;;;;;;13.40;9.30;;;;;;;5.64;100.00;97600.09;270361;1268;22539;-84
2023/03/27 10:57:31;;;;;;;;;;;;;;;5.52;100.00;97609.52;272644;1268;22612;-85
2023/03/27 11:03:43;;;;;;;17.60;13.00;;;;;;;5.32;100.00;97621.96;273838;1268;22492;-83
2023/03/27 11:10:17;;;;;;;24.50;16.00;;;;;;;5.19;100.00;97637.19;270947;1268;23948;-83
2023/03/27 11:16:49;;;;;;;26.10;17.70;;;;;;;4.94;100.00;97657.30;270541;1268;25327;-82
2023/03/27 11:23:46;;;;;;;30.80;22.60;;;;;;;4.69;100.00;97685.18;270137;1268;26185;-82
2023/03/27 11:30:09;;;;;;;29.40;20.30;;;;;;;4.52;100.00;97709.73;270472;1258;23888;-82
2023/03/27 11:36:39;;;;;;;36.40;24.20;;;;;;;4.31;100.00;97728.22;270192;1268;22555;-83
2023/03/27 11:42:56;;;;;;;33.70;23.70;;;;;;;4.18;100.00;97750.30;270412;1268;22765;-84
2023/03/27 11:49:13;;;;;;;38.30;23.90;;;;;;;3.98;100.00;97766.16;272861;1268;22403;-83
2023/03/27 11:55:27;;;;;;;32.60;21.50;;;;;;;3.75;100.00;97777.57;272944;1268;22534;-84
2023/03/27 12:01:56;;;;;;;26.50;18.20;;;;;;;3.51;100.00;97794.35;272218;1268;22548;-82
2023/03/27 12:08:04;;;;;;;22.50;15.20;;;;;;;3.35;100.00;97812.80;270734;1268;22767;-82
2023/03/27 12:14:32;;;;;;;23.50;14.20;;;;;;;3.26;100.00;97836.12;270475;1268;22447;-82
2023/03/27 12:21:03;;;;;;;18.30;10.90;;;;;;;3.15;100.00;97859.92;270919;1269;22567;-82
2023/03/27 12:27:15;;;;;;;14.80;8.10;;;;;;;2.92;100.00;97884.06;272447;1261;22544;-83
2023/03/27 12:33:50;;;;;;;15.00;9.00;;;;;;;2.68;100.00;97904.63;273614;1268;23206;-83
2023/03/27 12:39:57;;;;;;;13.60;9.20;;;;;;;2.52;100.00;97921.37;271211;1262;25479;-83
2023/03/27 12:46:22;;;;;;;14.10;10.20;;;;;;;2.48;100.00;97935.40;271460;1268;23256;-83
2023/03/27 12:52:25;;;;;;;17.70;10.80;;;;;;;2.47;100.00;97948.26;273373;1268;22430;-83
2023/03/27 12:58:47;;;;;;;15.40;10.40;;;;;;;2.40;100.00;97968.06;273351;1258;22885;-83
2023/03/27 13:05:27;;;;;;;15.20;9.70;;;;;;;2.35;100.00;97982.42;273664;1268;23917;-84
2023/03/27 13:11:58;;;;;;;14.80;9.10;;;;;;;2.32;100.00;98003.02;270557;1262;22744;-84
2023/03/27 13:18:26;;;;;;;12.80;9.10;;;;;;;2.27;100.00;98023.96;270773;1262;22532;-83
2023/03/27 13:25:03;;;;;;;14.10;8.70;;;;;;;2.21;100.00;98041.54;270737;1268;22597;-83
2023/03/27 13:31:10;;;;;;;12.50;8.60;;;;;;;2.21;100.00;98049.55;271277;1258;22222;-83
2023/03/27 13:37:15;;;;;;;15.40;8.40;;;;;;;2.20;100.00;98060.25;271983;1258;22550;-83
2023/03/27 13:43:26;;;;;;;10.40;7.50;;;;;;;2.16;100.00;98074.56;270672;1266;22562;-81
2023/03/27 13:50:12;;;;;;;12.90;8.30;;;;;;;2.13;100.00;98086.71;270365;1258;25406;-81
2023/03/27 13:56:51;;;;;;;12.10;7.30;;;;;;;2.10;100.00;98094.20;270285;1268;22588;-82
2023/03/27 14:03:31;;;;;;;16.00;7.70;;;;;;;2.18;100.00;98098.52;271794;1268;22274;-82
2023/03/27 14:09:44;;;;;;;14.00;7.80;;;;;;;2.26;100.00;98115.11;272132;1260;22414;-83
2023/03/27 14:16:26;;;;;;;9.90;6.70;;;;;;;2.33;100.00;98125.76;272886;1258;22970;-82
2023/03/27 14:22:57;;;;;;;11.90;7.70;;;;;;;2.39;100.00;98137.41;270961;1260;22539;-83
2023/03/27 14:29:03;;;;;;;10.30;6.70;;;;;;;2.46;100.00;98147.60;270976;1270;22605;-83
2023/03/27 14:35:34;;;;;;;10.40;6.60;;;;;;;2.47;100.00;98160.66;272384;1268;23758;-82
2023/03/27 14:42:01;;;;;;;10.10;6.90;;;;;;;2.43;100.00;98179.37;273615;1260;22311;-82
2023/03/27 14:48:25;;;;;;;10.90;7.40;;;;;;;2.40;99.50;98196.16;273441;1271;23257;-84
2023/03/27 14:54:36;;;;;;;12.00;6.80;;;;;;;2.38;98.87;98204.30;273533;1268;22425;-82
2023/03/27 15:00:49;;;;;;;8.10;6.00;;;;;;;2.38;98.42;98214.27;271191;1268;22547;-83
2023/03/27 15:06:54;;;;;;;9.70;6.70;;;;;;;2.40;97.50;98231.05;271947;1268;22461;-83
2023/03/27 15:13:15;;;;;;;10.70;6.20;;;;;;;2.40;96.81;98244.73;273540;1259;22368;-83
2023/03/27 15:19:42;;;;;;;9.20;6.20;;;;;;;2.39;96.09;98251.56;273356;1268;22263;-83
2023/03/27 15:26:01;;;;;;;9.20;5.80;;;;;;;2.37;95.07;98264.91;270199;1268;22592;-83
2023/03/27 15:32:07;;;;;;;11.20;5.40;;;;;;;2.32;94.62;98276.66;270513;1260;22683;-83
2023/03/27 15:38:53;;;;;;;10.30;5.60;;;;;;;2.30;94.20;98284.83;270234;1268;24034;-83
2023/03/27 15:44:57;;;;;;;10.80;5.10;;;;;;;2.28;93.88;98295.02;272421;1268;23214;-84
2023/03/27 15:51:17;;;;;;;8.40;5.00;;;;;;;2.28;93.24;98300.80;271567;1267;22413;-83
2023/03/27 15:57:19;;;;;;;8.00;4.90;;;;;;;2.29;92.84;98310.13;273602;1260;22435;-84
2023/03/27 16:03:23;;;;;;;7.20;5.10;;;;;;;2.29;92.03;98318.53;273567;1271;23335;-83
2023/03/27 16:09:27;;;;;;;13.40;5.80;;;;;;;2.29;91.63;98331.20;272580;1269;22532;-83
2023/03/27 16:15:43;;;;;;;11.40;5.70;;;;;;;2.28;91.12;98338.01;272161;1272;22452;-84
2023/03/27 16:21:53;;;;;;;;;;;;;;;2.27;90.91;98350.26;273615;1270;22528;-83
2023/03/27 16:27:57;;;;;;;10.30;4.70;;;;;;;2.23;90.43;98353.61;273362;1271;23281;-82
2023/03/27 16:33:59;;;;;;;8.40;4.60;;;;;;;2.20;89.68;98365.44;273505;1261;22336;-84
2023/03/27 16:40:01;;;;;;;8.80;4.20;;;;;;;2.18;89.27;98376.80;273523;1271;22358;-81
2023/03/27 16:46:09;;;;;;;8.00;3.70;;;;;;;2.15;88.75;98393.66;273112;1273;22224;-83
2023/03/27 16:52:13;;;;;;;5.70;3.40;;;;;;;2.06;88.49;98408.17;273612;1269;22144;-82
2023/03/27 16:58:15;;;;;;;4.70;2.80;;;;;;;1.97;87.41;98418.02;273653;1269;22455;-84
2023/03/27 17:04:18;;;;;;;8.20;3.60;;;;;;;1.89;86.56;98428.86;265842;1271;10001261;-83
2023/03/27 17:10:19;;;;;;;6.30;3.20;;;;;;;1.85;86.35;98442.89;273549;1271;22258;-82
2023/03/27 17:16:21;;;;;;;12.10;4.00;;;;;;;1.87;86.12;98442.56;273283;1269;23653;-83
2023/03/27 17:22:25;;;;;;;9.50;3.80;;;;;;;1.85;85.99;98458.40;273365;1268;22275;-82
2023/03/27 17:28:47;;;;;;;6.20;3.20;;;;;;;1.82;86.11;98468.39;273529;1268;22489;-83
2023/03/27 17:34:50;;;;;;;9.50;3.30;;;;;;;1.78;85.59;98475.46;273503;1272;22404;-82
2023/03/27 17:40:52;;;;;;;8.60;3.40;;;;;;;1.75;84.89;98481.37;273220;1269;23059;-82
2023/03/27 17:46:54;;;;;;;6.30;3.50;;;;;;;1.74;83.63;98489.60;273330;1270;22444;-82
2023/03/27 17:52:56;;;;;;;13.40;4.00;;;;;;;1.71;83.43;98498.14;273353;1270;22295;-84
2023/03/27 17:58:59;;;;;;;12.90;5.90;;;;;;;1.72;83.22;98503.02;273465;1270;22601;-83
2023/03/27 18:05:00;;;;;;;12.90;4.80;;;;;;;1.75;82.62;98515.31;273629;1267;22392;-84
2023/03/27 18:11:07;;;;;;;7.90;4.30;;;;;;;1.76;82.36;98519.20;273261;1270;23613;-84
2023/03/27 18:17:09;;;;;;;;;;;;;;;1.73;82.07;98524.30;273622;1260;23268;-84
2023/03/27 18:23:11;;;;;;;12.10;4.80;;;;;;;1.69;81.78;98539.29;273534;1266;22380;-84
2023/03/27 18:29:13;;;;;;;13.70;5.20;;;;;;;1.63;81.63;98549.70;272461;1267;22444;-85
2023/03/27 18:35:17;;;;;;;13.30;6.00;;;;;;;1.59;81.42;98556.33;273596;1269;22383;-84
2023/03/27 18:41:19;;;;;;;11.10;5.10;;;;;;;1.54;81.08;98564.63;273321;1266;22445;-84
2023/03/27 18:47:22;;;;;;;11.80;5.70;;;;;;;1.52;80.86;98569.16;273137;1270;22574;-83
2023/03/27 18:53:24;;;;;;;13.30;6.00;;;;;;;1.47;80.74;98577.75;273165;1270;22228;-84
2023/03/27 18:59:25;;;;;;;13.20;6.50;;;;;;;1.44;80.59;98586.55;273278;1269;22575;-84
2023/03/27 19:05:27;;;;;;;15.70;6.80;;;;;;;1.39;80.51;98591.91;273414;1267;22308;-84
2023/03/27 19:11:29;;;;;;;10.00;5.00;;;;;;;1.33;80.51;98597.14;273467;1269;86020;-83
2023/03/27 19:18:14;;;;;;;16.30;6.10;;;;;;;1.30;80.32;98609.19;271235;1269;22366;-83
2023/03/27 19:24:45;;;;;;;13.00;5.70;;;;;;;1.27;79.72;98614.75;272659;1269;23467;-84
2023/03/27 19:30:51;;;;;;;11.60;6.00;;;;;;;1.24;79.55;98619.71;273432;1269;22284;-84
2023/03/27 19:36:53;;;;;;;9.30;5.00;;;;;;;1.17;79.47;98623.13;272981;1269;22374;-84
2023/03/27 19:42:55;;;;;;;8.80;4.40;;;;;;;1.09;79.44;98624.95;270813;1268;23533;-84
2023/03/27 19:48:57;;;;;;;10.00;4.10;;;;;;;1.06;79.19;98631.12;273037;1268;22426;-84
2023/03/27 19:55:12;;;;;;;12.00;5.50;;;;;;;1.01;79.24;98626.56;273261;1268;22447;-84
2023/03/27 20:01:13;;;;;;;16.40;6.90;;;;;;;0.96;79.04;98627.50;272511;1268;22419;-85
2023/03/27 20:07:15;;;;;;;15.10;6.60;;;;;;;0.92;78.96;98635.52;272997;1267;22337;-84
2023/03/27 20:13:17;;;;;;;13.50;6.80;;;;;;;0.84;79.02;98638.14;273471;1268;22371;-84
2023/03/27 20:19:19;;;;;;;14.70;7.40;;;;;;;0.76;79.08;98640.15;271988;1261;22508;-84
2023/03/27 20:25:21;;;;;;;16.60;7.40;;;;;;;0.69;79.11;98645.07;273058;1269;22455;-84
2023/03/27 20:31:26;;;;;;;14.10;6.90;;;;;;;0.62;79.53;98646.84;272944;1269;23756;-85
2023/03/27 20:37:34;;;;;;;18.30;6.90;;;;;;;0.53;79.56;98648.15;272349;1268;22849;-82
2023/03/27 20:44:38;;;;;;;12.90;6.80;;;;;;;0.49;79.51;98650.56;271785;1257;22379;-84
2023/03/27 20:51:01;;;;;;;18.90;7.90;;;;;;;0.47;79.70;98653.70;271843;1272;23755;-85
2023/03/27 20:57:04;;;;;;;18.60;7.60;;;;;;;0.45;80.10;98655.58;270439;1272;22541;-85
2023/03/27 21:03:06;;;;;;;12.50;7.00;;;;;;;0.42;80.67;98655.57;269270;1272;24375;-85
2023/03/27 21:09:48;;;;;;;14.80;7.20;;;;;;;0.35;80.40;98659.94;269542;1272;22555;-85
2023/03/27 21:15:50;;;;;;;18.00;8.50;;;;;;;0.28;80.59;98661.33;270266;1259;22686;-84
2023/03/27 21:21:52;;;;;;;15.20;6.60;;;;;;;0.21;80.50;98668.00;270493;1267;22426;-85
2023/03/27 21:28:01;;;;;;;17.00;8.80;;;;;;;0.16;80.54;98671.38;272433;1268;22415;-84
2023/03/27 21:34:03;;;;;;;18.60;8.50;;;;;;;0.12;80.75;98673.03;271328;1268;22482;-85
2023/03/27 21:40:05;;;;;;;19.00;8.80;;;;;;;0.05;80.57;98670.27;273097;1268;23115;-84
2023/03/27 21:46:07;;;;;;;18.50;8.80;;;;;;;-0.01;80.68;98678.02;273669;1259;22448;-84
2023/03/27 21:52:49;;;;;;;16.30;8.30;;;;;;;-0.07;80.72;98679.67;273041;1260;23631;-84
2023/03/27 21:58:52;;;;;;;19.00;9.40;;;;;;;-0.14;80.70;98681.87;272382;1268;22427;-84
2023/03/27 22:04:54;;;;;;;20.00;9.30;;;;;;;-0.22;80.55;98681.15;272531;1268;22402;-84
2023/03/27 22:10:58;;;;;;;22.70;9.50;;;;;;;-0.29;80.62;98689.16;271937;1268;22410;-83
2023/03/27 22:16:59;;;;;;;19.90;10.60;;;;;;;-0.35;80.64;98692.63;273452;1268;22410;-83
2023/03/27 22:23:01;;;;;;;24.40;10.70;;;;;;;-0.38;80.85;98696.19;273380;1261;22244;-83
2023/03/27 22:29:04;;;;;;;33.30;12.30;;;;;;;-0.44;80.93;98695.17;273705;1268;22291;-83
2023/03/27 22:35:07;;;;;;;24.10;10.90;;;;;;;-0.53;80.92;98696.66;273419;1268;22527;-82
2023/03/27 22:41:10;;;;;;;24.00;11.30;;;;;;;-0.59;81.06;98698.11;273550;1258;22168;-84
2023/03/27 22:47:11;;;;;;;22.80;11.20;;;;;;;-0.65;81.16;98702.35;273406;1258;22413;-82
2023/03/27 22:53:13;;;;;;;19.00;10.70;;;;;;;-0.73;81.25;98700.19;273714;1268;23480;-82
2023/03/27 22:59:16;;;;;;;22.40;11.90;;;;;;;-0.80;81.31;98704.08;273675;1268;22726;-83
2023/03/27 23:05:18;;;;;;;25.60;13.20;;;;;;;-0.85;81.49;98707.33;273487;1267;22936;-83
2023/03/27 23:11:21;;;;;;;31.70;12.40;;;;;;;-0.93;81.68;98707.55;273580;1268;22383;-83
2023/03/27 23:17:23;;;;;;;27.80;12.70;;;;;;;-1.02;81.47;98710.08;273495;1254;22435;-83
2023/03/27 23:23:25;;;;;;;32.30;13.80;;;;;;;-1.08;81.95;98714.78;273676;1268;23421;-83
2023/03/27 23:29:43;;;;;;;23.90;12.60;;;;;;;-1.12;82.68;98718.29;273709;1255;22426;-83
2023/03/27 23:35:45;;;;;;;28.90;12.40;;;;;;;-1.23;82.39;98719.63;273571;1268;22196;-83
2023/03/27 23:41:47;;;;;;;31.90;14.20;;;;;;;-1.31;83.17;98721.35;273620;1268;23103;-83
2023/03/27 23:47:49;;;;;;;24.50;13.20;;;;;;;-1.38;83.43;98720.89;273710;1268;22238;-83
2023/03/27 23:53:50;;;;;;;32.90;13.80;;;;;;;-1.49;83.41;98723.46;273662;1268;22375;-84
2023/03/27 23:59:52;;;;;;;32.00;14.90;;;;;;;-1.55;83.91;98721.32;273639;1268;22458;-82
